Time;durP1;ratioP1;P1;durP2;ratioP2;P2;SDS_P1;SDS_P2;PMS_P1;PMS_P2;Temp;Humidity;BMP_temperature;BMP_pressure;BME280_temperature;BME280_humidity;BME280_pressure;Samples;Min_cycle;Max_cycle;Signal;HPM_P1;HPM_P2
2021/09/18 00:01:08;;;;;;;19.50;15.00;;;;;;;13.97;100.00;100425.44;5056707;28;20051;-51
2021/09/18 00:03:34;;;;;;;18.75;15.45;;;;;;;14.00;100.00;100425.28;5047634;28;20135;-50
2021/09/18 00:06:02;;;;;;;18.98;14.18;;;;;;;14.00;100.00;100431.47;5058260;28;20409;-53
2021/09/18 00:08:28;;;;;;;20.02;14.77;;;;;;;14.03;100.00;100425.06;5057273;28;20421;-52
2021/09/18 00:10:55;;;;;;;18.63;13.85;;;;;;;14.01;100.00;100421.63;5055635;28;20067;-52
2021/09/18 00:13:21;;;;;;;16.73;13.20;;;;;;;14.03;100.00;100438.38;5058287;28;20048;-50
2021/09/18 00:15:47;;;;;;;17.42;13.50;;;;;;;13.99;100.00;100429.75;5056768;28;20048;-50
2021/09/18 00:18:14;;;;;;;18.00;13.70;;;;;;;13.98;100.00;100428.03;5060477;28;20055;-52
2021/09/18 00:20:40;;;;;;;14.23;12.38;;;;;;;13.97;100.00;100428.13;5055069;28;20044;-51
2021/09/18 00:23:07;;;;;;;19.08;13.52;;;;;;;13.99;100.00;100434.22;5056777;28;20067;-51
2021/09/18 00:25:33;;;;;;;17.83;14.00;;;;;;;13.95;100.00;100435.34;5053917;28;20053;-51
2021/09/18 00:28:00;;;;;;;19.55;14.10;;;;;;;13.91;100.00;100431.13;5062720;28;20049;-53
2021/09/18 00:30:26;;;;;;;17.38;12.80;;;;;;;13.87;100.00;100434.91;5056025;28;20870;-52
2021/09/18 00:32:53;;;;;;;17.40;13.65;;;;;;;13.86;100.00;100439.38;5060431;28;20059;-51
2021/09/18 00:35:19;;;;;;;17.90;12.57;;;;;;;13.85;100.00;100440.34;5055803;28;20043;-51
2021/09/18 00:37:47;;;;;;;15.07;12.82;;;;;;;13.86;100.00;100443.84;5055636;28;20052;-53
2021/09/18 00:40:13;;;;;;;15.50;11.38;;;;;;;13.66;100.00;100419.31;5055605;28;20055;-51
2021/09/18 00:42:40;;;;;;;14.55;11.23;;;;;;;13.66;100.00;100434.41;5056958;28;20072;-51
2021/09/18 00:45:07;;;;;;;15.77;11.90;;;;;;;13.55;100.00;100437.69;5063392;28;20139;-51
2021/09/18 00:47:34;;;;;;;16.70;11.02;;;;;;;13.47;100.00;100442.59;5061734;28;20050;-50
2021/09/18 00:50:01;;;;;;;13.73;11.65;;;;;;;13.39;100.00;100426.22;5062967;28;20725;-51
2021/09/18 00:52:27;;;;;;;14.98;11.77;;;;;;;13.34;100.00;100430.97;5064175;28;20053;-51
2021/09/18 00:54:54;;;;;;;15.10;12.18;;;;;;;13.29;100.00;100427.72;5060015;28;20048;-52
2021/09/18 00:57:20;;;;;;;13.88;11.13;;;;;;;13.28;100.00;100426.00;5060142;28;20040;-52
2021/09/18 00:59:47;;;;;;;13.23;11.70;;;;;;;13.24;100.00;100429.75;5062780;28;20048;-52
2021/09/18 01:02:13;;;;;;;13.77;11.85;;;;;;;13.21;100.00;100428.16;5057623;28;20052;-50
2021/09/18 01:04:41;;;;;;;18.33;12.38;;;;;;;13.20;100.00;100423.78;5063045;28;20123;-51
2021/09/18 01:07:08;;;;;;;14.10;12.00;;;;;;;13.18;100.00;100419.50;5064653;28;20060;-52
2021/09/18 01:09:34;;;;;;;17.85;13.43;;;;;;;13.16;100.00;100416.06;5061711;28;20076;-51
2021/09/18 01:12:05;;;;;;;15.73;13.27;;;;;;;13.14;100.00;100413.47;5057003;28;20386;-51
2021/09/18 01:14:32;;;;;;;15.95;14.00;;;;;;;13.20;100.00;100417.63;5061696;28;20040;-51
2021/09/18 01:17:00;;;;;;;16.48;13.07;;;;;;;13.22;100.00;100421.03;5062450;28;20140;-51
2021/09/18 01:19:26;;;;;;;18.48;14.10;;;;;;;13.22;100.00;100419.22;5062957;28;20173;-51
2021/09/18 01:21:54;;;;;;;15.57;13.32;;;;;;;13.09;100.00;100399.56;5064017;28;20624;-52
2021/09/18 01:24:20;;;;;;;16.70;13.90;;;;;;;13.19;100.00;100410.59;5062045;28;20520;-53
2021/09/18 01:26:47;;;;;;;16.38;13.60;;;;;;;13.14;100.00;100412.59;5064226;28;20047;-52
2021/09/18 01:29:14;;;;;;;17.75;13.82;;;;;;;13.18;100.00;100423.00;5060161;28;20143;-51
2021/09/18 01:31:46;;;;;;;18.42;15.20;;;;;;;13.22;100.00;100421.88;5063220;28;20572;-50
2021/09/18 01:34:22;;;;;;;17.92;14.48;;;;;;;13.18;100.00;100420.34;5067232;28;20044;-54
2021/09/18 01:36:50;;;;;;;15.43;13.30;;;;;;;13.20;100.00;100429.09;5061893;28;20086;-52
2021/09/18 01:39:18;;;;;;;18.67;14.27;;;;;;;13.18;100.00;100422.16;5066554;28;20466;-52
2021/09/18 01:41:46;;;;;;;16.35;14.48;;;;;;;13.16;100.00;100419.59;5065607;28;20045;-51
2021/09/18 01:44:14;;;;;;;17.63;15.13;;;;;;;13.13;100.00;100426.84;5066771;28;20133;-51
2021/09/18 01:46:42;;;;;;;19.33;16.77;;;;;;;13.12;100.00;100425.13;5062367;28;20068;-58
2021/09/18 01:49:16;;;;;;;22.08;17.05;;;;;;;13.11;100.00;100426.91;5065362;28;20093;-53
2021/09/18 01:51:54;;;;;;;21.30;16.95;;;;;;;13.14;100.00;100428.56;5059556;28;20101;-52
2021/09/18 01:54:21;;;;;;;24.08;16.88;;;;;;;13.13;100.00;100429.50;5066118;28;20459;-51
2021/09/18 01:56:47;;;;;;;24.17;16.88;;;;;;;13.13;100.00;100430.34;5065858;28;20131;-51
2021/09/18 01:59:14;;;;;;;21.90;17.92;;;;;;;13.11;100.00;100420.75;5064375;28;20151;-51
2021/09/18 02:01:40;;;;;;;27.25;20.13;;;;;;;13.11;100.00;100423.41;5064696;28;20135;-51
2021/09/18 02:04:07;;;;;;;28.48;20.10;;;;;;;13.11;100.00;100431.38;5067577;28;20473;-51
2021/09/18 02:06:33;;;;;;;27.95;21.58;;;;;;;13.10;100.00;100421.69;5069933;28;20140;-51
2021/09/18 02:09:00;;;;;;;26.00;21.05;;;;;;;13.06;100.00;100422.84;5067352;28;20155;-52
2021/09/18 02:11:30;;;;;;;27.60;21.17;;;;;;;13.03;100.00;100423.00;5063347;28;20102;-50
2021/09/18 02:13:57;;;;;;;28.75;20.80;;;;;;;13.05;100.00;100418.47;5065006;28;20133;-53
2021/09/18 02:16:23;;;;;;;24.65;20.48;;;;;;;13.03;100.00;100420.34;5066364;28;20130;-50
2021/09/18 02:18:50;;;;;;;26.40;19.58;;;;;;;13.03;100.00;100413.22;5065681;28;20047;-53
2021/09/18 02:21:17;;;;;;;30.75;19.77;;;;;;;13.02;100.00;100414.16;5064614;28;20044;-52
2021/09/18 02:23:43;;;;;;;25.08;20.10;;;;;;;13.01;100.00;100409.78;5062812;28;20049;-51
2021/09/18 02:26:10;;;;;;;28.10;20.75;;;;;;;13.00;100.00;100410.72;5066774;28;20498;-50
2021/09/18 02:28:36;;;;;;;27.95;20.75;;;;;;;12.98;100.00;100400.19;5067052;28;20060;-52
2021/09/18 02:31:03;;;;;;;26.60;21.98;;;;;;;12.95;100.00;100397.69;5066317;28;20055;-50
2021/09/18 02:33:29;;;;;;;27.42;21.70;;;;;;;12.96;100.00;100404.72;5064767;28;20568;-51
2021/09/18 02:35:56;;;;;;;27.35;21.38;;;;;;;12.94;100.00;100390.66;5065047;28;20136;-51
2021/09/18 02:38:23;;;;;;;31.95;22.98;;;;;;;12.92;100.00;100397.00;5064125;28;20140;-51
2021/09/18 02:40:52;;;;;;;29.45;23.52;;;;;;;12.91;100.00;100390.81;5065954;28;20169;-52
2021/09/18 02:43:19;;;;;;;29.65;22.85;;;;;;;12.91;100.00;100401.47;5063734;28;20498;-50
2021/09/18 02:45:46;;;;;;;26.75;21.25;;;;;;;12.81;100.00;100383.47;5065675;28;20087;-52
2021/09/18 02:48:12;;;;;;;32.55;23.17;;;;;;;12.88;100.00;100401.66;5065689;28;20085;-51
2021/09/18 02:50:39;;;;;;;29.40;21.95;;;;;;;12.79;100.00;100386.22;5063804;28;20571;-51
2021/09/18 02:53:06;;;;;;;28.42;21.65;;;;;;;12.77;100.00;100379.25;5063648;28;20072;-52
2021/09/18 02:55:32;;;;;;;27.40;22.13;;;;;;;12.84;100.00;100400.09;5062392;28;20048;-51
2021/09/18 02:57:59;;;;;;;28.45;21.90;;;;;;;12.82;100.00;100391.38;5064526;28;20052;-51
2021/09/18 03:00:25;;;;;;;29.88;23.70;;;;;;;12.69;100.00;100377.06;5065335;28;20159;-53
2021/09/18 03:02:52;;;;;;;32.60;23.80;;;;;;;12.80;100.00;100403.88;5077078;28;20055;-51
2021/09/18 03:05:19;;;;;;;36.45;24.95;;;;;;;12.80;100.00;100403.00;5084832;28;20040;-51
2021/09/18 03:07:45;;;;;;;41.15;26.17;;;;;;;12.84;100.00;100401.91;5083442;28;20894;-49
2021/09/18 03:10:12;;;;;;;37.42;25.42;;;;;;;12.85;100.00;100403.63;5085867;28;20097;-51
2021/09/18 03:12:39;;;;;;;35.33;25.55;;;;;;;12.81;100.00;100396.75;5086394;28;20036;-52
2021/09/18 03:15:08;;;;;;;39.17;26.60;;;;;;;12.73;100.00;100407.84;5083334;28;20043;-52
2021/09/18 03:17:35;;;;;;;40.03;26.90;;;;;;;12.73;100.00;100396.34;5083193;28;20147;-50
2021/09/18 03:20:03;;;;;;;38.50;27.55;;;;;;;12.79;100.00;100401.31;5083983;28;20044;-52
2021/09/18 03:22:30;;;;;;;36.53;25.25;;;;;;;12.75;100.00;100405.91;5085086;28;20044;-50
2021/09/18 03:24:56;;;;;;;32.83;23.23;;;;;;;12.68;100.00;100399.25;5084683;28;20072;-53
2021/09/18 03:27:23;;;;;;;31.73;22.67;;;;;;;12.65;100.00;100391.44;5084094;28;20047;-51
2021/09/18 03:29:49;;;;;;;31.17;22.48;;;;;;;12.61;100.00;100393.41;5081967;28;20048;-51
2021/09/18 03:32:16;;;;;;;31.27;22.17;;;;;;;12.56;100.00;100403.44;5081561;28;20044;-52
2021/09/18 03:34:42;;;;;;;29.73;21.25;;;;;;;12.52;100.00;100399.25;5077097;28;20995;-50
2021/09/18 03:37:09;;;;;;;28.50;21.83;;;;;;;12.47;100.00;100395.09;5084268;28;20044;-51
2021/09/18 03:39:35;;;;;;;31.92;22.10;;;;;;;12.41;100.00;100395.47;5086173;28;20083;-51
2021/09/18 03:42:02;;;;;;;29.95;21.98;;;;;;;12.35;100.00;100395.78;5080470;28;20466;-51
2021/09/18 03:44:29;;;;;;;30.58;21.65;;;;;;;12.28;100.00;100389.94;5085209;28;20135;-51
2021/09/18 03:46:56;;;;;;;30.35;21.85;;;;;;;12.28;100.00;100400.56;5086041;28;20088;-51
2021/09/18 03:49:22;;;;;;;31.65;22.33;;;;;;;12.24;100.00;100399.88;5086484;28;20123;-51
2021/09/18 03:51:49;;;;;;;28.75;22.20;;;;;;;12.20;100.00;100400.97;5082010;28;20044;-52
2021/09/18 03:54:16;;;;;;;28.95;22.05;;;;;;;12.17;100.00;100392.31;5083813;28;20097;-52
2021/09/18 03:56:42;;;;;;;29.38;22.95;;;;;;;12.13;100.00;100390.75;5082967;28;20119;-55
2021/09/18 03:59:09;;;;;;;28.00;21.23;;;;;;;12.14;100.00;100392.47;5084145;28;20720;-53
2021/09/18 04:01:35;;;;;;;34.60;24.05;;;;;;;12.12;100.00;100394.38;5083705;28;20150;-50
2021/09/18 04:04:02;;;;;;;30.00;22.55;;;;;;;12.13;100.00;100398.72;5081966;28;20074;-51
2021/09/18 04:06:29;;;;;;;30.25;21.63;;;;;;;12.14;100.00;100401.28;5083143;28;20044;-51
2021/09/18 04:08:55;;;;;;;30.70;23.17;;;;;;;12.14;100.00;100400.44;5079825;28;20044;-50
2021/09/18 04:11:22;;;;;;;25.50;20.30;;;;;;;12.12;100.00;100400.50;5082428;28;20159;-50
2021/09/18 04:13:51;;;;;;;26.63;19.98;;;;;;;12.14;100.00;100403.94;5083133;28;20138;-51
2021/09/18 04:16:19;;;;;;;25.63;20.05;;;;;;;12.12;100.00;100407.66;5083725;28;20040;-51
2021/09/18 04:18:47;;;;;;;25.73;20.02;;;;;;;12.07;100.00;100401.72;5084353;28;20066;-51
2021/09/18 04:21:13;;;;;;;32.88;21.17;;;;;;;12.00;100.00;100402.97;5083571;28;20481;-52
2021/09/18 04:23:40;;;;;;;28.65;20.85;;;;;;;11.98;100.00;100405.69;5081739;28;20044;-53
2021/09/18 04:26:06;;;;;;;32.00;20.98;;;;;;;12.00;100.00;100409.13;5083081;28;20127;-51
2021/09/18 04:28:33;;;;;;;28.02;20.10;;;;;;;12.00;100.00;100409.13;5079185;28;20067;-50
2021/09/18 04:31:00;;;;;;;32.92;21.42;;;;;;;12.00;100.00;100409.13;5084948;28;20131;-51
2021/09/18 04:33:26;;;;;;;32.28;20.98;;;;;;;12.03;100.00;100414.28;5080946;28;20562;-52
2021/09/18 04:35:53;;;;;;;30.38;20.88;;;;;;;12.02;100.00;100415.22;5082644;28;20072;-51
2021/09/18 04:38:20;;;;;;;32.00;21.48;;;;;;;12.05;100.00;100415.06;5083292;28;20135;-52
2021/09/18 04:40:46;;;;;;;30.73;21.30;;;;;;;12.06;100.00;100414.13;5084015;28;20054;-51
2021/09/18 04:43:13;;;;;;;36.38;22.85;;;;;;;12.04;100.00;100401.88;5079511;28;20117;-50
2021/09/18 04:45:41;;;;;;;37.03;23.48;;;;;;;12.08;100.00;100414.91;5073527;28;20040;-53
2021/09/18 04:48:08;;;;;;;35.42;22.73;;;;;;;12.12;100.00;100413.78;5082007;28;20055;-51
2021/09/18 04:50:34;;;;;;;36.40;22.30;;;;;;;12.16;100.00;100423.31;5083212;28;20078;-50
2021/09/18 04:53:01;;;;;;;39.50;23.67;;;;;;;12.18;100.00;100416.13;5084158;28;20120;-51
2021/09/18 04:55:27;;;;;;;38.10;23.40;;;;;;;12.19;100.00;100420.50;5080385;28;20040;-51
2021/09/18 04:57:54;;;;;;;41.50;24.40;;;;;;;12.22;100.00;100423.00;5083834;28;20044;-53
2021/09/18 05:00:21;;;;;;;41.05;23.80;;;;;;;12.15;100.00;100402.16;5084026;28;20507;-51
2021/09/18 05:02:48;;;;;;;38.70;23.60;;;;;;;12.24;100.00;100417.59;5074987;28;20147;-53
2021/09/18 05:05:15;;;;;;;38.30;22.77;;;;;;;12.24;100.00;100430.88;5081407;28;20128;-52
2021/09/18 05:07:41;;;;;;;40.00;24.35;;;;;;;12.13;100.00;100412.84;5086273;28;20123;-50
2021/09/18 05:10:10;;;;;;;35.30;23.52;;;;;;;12.25;100.00;100428.16;5090547;28;20094;-52
2021/09/18 05:12:37;;;;;;;45.38;24.38;;;;;;;12.25;100.00;100425.50;5089702;28;20320;-51
2021/09/18 05:15:06;;;;;;;41.20;24.90;;;;;;;12.29;100.00;100435.00;5082687;28;20060;-52
2021/09/18 05:17:32;;;;;;;39.22;24.45;;;;;;;12.30;100.00;100443.81;5086125;28;20087;-52
2021/09/18 05:19:59;;;;;;;36.75;23.60;;;;;;;12.33;100.00;100440.16;5091565;28;20081;-51
2021/09/18 05:22:26;;;;;;;35.88;22.23;;;;;;;12.36;100.00;100445.28;5085163;28;20044;-51
2021/09/18 05:24:52;;;;;;;37.92;23.38;;;;;;;12.35;100.00;100444.44;5087458;28;20611;-51
2021/09/18 05:27:19;;;;;;;40.55;23.98;;;;;;;12.33;100.00;100440.16;5087479;28;20417;-51
2021/09/18 05:29:45;;;;;;;39.40;25.45;;;;;;;12.37;100.00;100439.91;5085117;28;20262;-51
2021/09/18 05:32:13;;;;;;;48.80;27.48;;;;;;;12.39;100.00;100448.66;5082024;28;20559;-51
2021/09/18 05:34:40;;;;;;;53.97;28.73;;;;;;;12.40;100.00;100447.72;5082066;28;20561;-52
2021/09/18 05:37:07;;;;;;;45.08;27.02;;;;;;;12.44;100.00;100448.38;5083985;28;20040;-50
2021/09/18 05:39:34;;;;;;;50.13;28.33;;;;;;;12.48;100.00;100455.25;5083690;28;20140;-51
2021/09/18 05:42:01;;;;;;;45.88;25.98;;;;;;;12.50;100.00;100458.69;5086461;28;20745;-51
2021/09/18 05:44:28;;;;;;;42.40;26.75;;;;;;;12.54;100.00;100460.25;5087411;28;20261;-50
2021/09/18 05:46:54;;;;;;;39.58;25.45;;;;;;;12.57;100.00;100454.78;5086983;28;20051;-52
2021/09/18 05:49:21;;;;;;;38.05;24.77;;;;;;;12.57;100.00;100454.78;5085983;28;20094;-51
2021/09/18 05:51:47;;;;;;;40.28;25.52;;;;;;;12.53;100.00;100459.38;5085920;28;20152;-51
2021/09/18 05:54:14;;;;;;;45.35;26.10;;;;;;;12.56;100.00;100458.38;5085396;28;20043;-51
2021/09/18 05:56:40;;;;;;;35.72;24.05;;;;;;;12.59;100.00;100464.34;5062731;28;20043;-51
2021/09/18 05:59:07;;;;;;;32.67;22.85;;;;;;;12.61;100.00;100461.63;5086903;28;20542;-52
2021/09/18 06:01:37;;;;;;;35.22;22.58;;;;;;;12.63;100.00;100465.91;5087394;28;20046;-56
2021/09/18 06:04:04;;;;;;;31.08;22.38;;;;;;;12.65;100.00;100469.34;5086421;28;20067;-51
2021/09/18 06:06:31;;;;;;;31.90;22.17;;;;;;;12.67;100.00;100466.59;5086894;28;20048;-52
2021/09/18 06:08:57;;;;;;;28.52;21.48;;;;;;;12.65;100.00;100463.19;5080842;28;20112;-51
2021/09/18 06:11:24;;;;;;;34.33;23.05;;;;;;;12.65;100.00;100463.19;5086990;28;20509;-51
2021/09/18 06:13:50;;;;;;;39.65;24.33;;;;;;;12.56;100.00;100442.44;5083627;28;20072;-52
2021/09/18 06:16:17;;;;;;;35.42;23.98;;;;;;;12.73;100.00;100465.44;5083721;28;20036;-51
2021/09/18 06:18:44;;;;;;;40.97;25.80;;;;;;;12.76;100.00;100467.91;5088027;28;20040;-53
2021/09/18 06:21:10;;;;;;;44.88;27.70;;;;;;;12.80;100.00;100461.47;5086628;28;20040;-52
2021/09/18 06:23:37;;;;;;;41.70;26.70;;;;;;;12.84;100.00;100466.53;5076345;28;20138;-52
2021/09/18 06:26:04;;;;;;;42.78;25.40;;;;;;;12.80;100.00;100462.34;5086321;28;20082;-51
2021/09/18 06:28:31;;;;;;;36.30;24.52;;;;;;;12.80;100.00;100462.34;5085823;28;20141;-52
2021/09/18 06:30:58;;;;;;;37.08;24.27;;;;;;;12.79;100.00;100465.94;5085556;28;20067;-52
2021/09/18 06:33:25;;;;;;;40.38;25.92;;;;;;;12.85;100.00;100465.59;5080836;28;20047;-51
2021/09/18 06:35:52;;;;;;;40.45;25.35;;;;;;;12.86;100.00;100477.97;5082968;28;20044;-51
2021/09/18 06:38:21;;;;;;;42.45;25.98;;;;;;;12.91;100.00;100475.03;5083705;28;20051;-51
2021/09/18 06:40:54;;;;;;;40.50;26.35;;;;;;;12.95;100.00;100482.75;5085900;28;20047;-52
2021/09/18 06:43:22;;;;;;;41.20;25.83;;;;;;;12.98;100.00;100479.94;5084263;28;20054;-51
2021/09/18 06:45:50;;;;;;;37.08;25.73;;;;;;;13.03;100.00;100479.69;5085212;28;20113;-52
2021/09/18 06:48:17;;;;;;;37.88;24.95;;;;;;;12.99;100.00;100481.66;5084903;28;20101;-53
2021/09/18 06:50:44;;;;;;;40.70;26.15;;;;;;;13.02;100.00;100485.94;5078206;28;20699;-53
2021/09/18 06:53:10;;;;;;;37.47;25.55;;;;;;;13.08;100.00;100492.69;5083538;28;20117;-52
2021/09/18 06:55:37;;;;;;;34.97;24.15;;;;;;;13.13;100.00;100486.19;5083344;28;20637;-52
2021/09/18 06:58:04;;;;;;;35.22;24.40;;;;;;;13.18;100.00;100488.63;5085616;28;20048;-51
2021/09/18 07:00:30;;;;;;;35.05;23.90;;;;;;;13.22;100.00;100482.22;5084346;28;20127;-50
2021/09/18 07:02:57;;;;;;;34.05;23.38;;;;;;;13.17;100.00;100473.63;5083437;28;20808;-52
2021/09/18 07:05:24;;;;;;;32.88;22.95;;;;;;;13.33;100.00;100487.75;5079620;28;20513;-50
2021/09/18 07:07:50;;;;;;;36.22;23.75;;;;;;;13.33;100.00;100483.31;5086035;28;20044;-51
2021/09/18 07:10:17;;;;;;;33.65;23.90;;;;;;;13.46;100.00;100493.25;5080321;28;20143;-51
2021/09/18 07:12:44;;;;;;;34.65;23.92;;;;;;;13.55;100.00;100487.38;5079268;28;20051;-51
2021/09/18 07:15:11;;;;;;;34.00;25.38;;;;;;;13.63;100.00;100490.47;5082009;28;20044;-51
2021/09/18 07:17:38;;;;;;;35.88;23.90;;;;;;;13.71;100.00;100488.19;5084050;28;20435;-51
2021/09/18 07:20:06;;;;;;;30.58;23.55;;;;;;;13.89;100.00;100489.78;5085152;28;20159;-51
2021/09/18 07:22:32;;;;;;;32.78;24.30;;;;;;;14.03;100.00;100486.31;5083769;28;20622;-50
2021/09/18 07:24:59;;;;;;;33.55;24.35;;;;;;;14.20;100.00;100486.16;5085281;28;20093;-51
2021/09/18 07:27:26;;;;;;;32.28;23.90;;;;;;;14.38;100.00;100492.16;5082493;28;20048;-53
2021/09/18 07:29:53;;;;;;;28.35;22.15;;;;;;;14.48;100.00;100493.34;5081513;28;20048;-51
2021/09/18 07:32:20;;;;;;;31.17;22.52;;;;;;;14.56;100.00;100487.56;5082343;28;20048;-51
2021/09/18 07:34:46;;;;;;;28.08;22.38;;;;;;;14.65;100.00;100486.97;5083613;28;20072;-51
2021/09/18 07:37:13;;;;;;;27.70;21.83;;;;;;;14.75;100.00;100498.78;5083185;28;20048;-51
2021/09/18 07:39:40;;;;;;;26.83;21.60;;;;;;;14.70;100.00;100475.06;5082788;28;20089;-50
2021/09/18 07:42:06;;;;;;;29.27;21.02;;;;;;;14.85;100.00;100499.91;5084804;28;20560;-52
2021/09/18 07:44:33;;;;;;;29.75;23.27;;;;;;;15.00;100.00;100503.41;5077104;28;20052;-53
2021/09/18 07:46:59;;;;;;;26.63;20.98;;;;;;;15.13;100.00;100496.34;5081343;28;20077;-52
2021/09/18 07:49:26;;;;;;;24.67;20.58;;;;;;;15.20;100.00;100500.34;5081000;28;20814;-54
2021/09/18 07:51:55;;;;;;;27.30;22.48;;;;;;;15.25;100.00;100502.72;5083615;28;20044;-52
2021/09/18 07:54:22;;;;;;;25.38;20.85;;;;;;;15.35;100.00;100503.81;5083050;28;20056;-53
2021/09/18 07:56:49;;;;;;;26.40;21.40;;;;;;;15.44;100.00;100509.41;5085612;28;20093;-54
2021/09/18 07:59:15;;;;;;;26.42;19.35;;;;;;;15.53;100.00;100505.31;5073485;28;20072;-50
2021/09/18 08:01:42;;;;;;;25.85;20.25;;;;;;;15.60;98.71;100509.28;5075244;28;20107;-51
2021/09/18 08:04:08;;;;;;;26.70;21.33;;;;;;;15.57;99.97;100512.19;5077944;28;21533;-52
2021/09/18 08:06:36;;;;;;;28.02;21.52;;;;;;;15.67;100.00;100501.75;5076979;28;20220;-50
2021/09/18 08:09:05;;;;;;;27.92;20.08;;;;;;;15.79;100.00;100509.78;5070168;28;20047;-51
2021/09/18 08:11:33;;;;;;;28.00;22.88;;;;;;;15.79;98.80;100509.78;5070024;28;20052;-51
2021/09/18 08:14:02;;;;;;;30.15;22.17;;;;;;;15.81;98.10;100498.16;5067833;28;20055;-52
2021/09/18 08:16:30;;;;;;;32.17;23.90;;;;;;;15.92;99.32;100509.81;5072490;28;20063;-51
2021/09/18 08:18:56;;;;;;;28.38;21.92;;;;;;;16.02;100.00;100512.75;5079230;28;20044;-51
2021/09/18 08:21:23;;;;;;;28.48;23.17;;;;;;;16.13;99.21;100503.03;5073145;28;20071;-51
2021/09/18 08:23:50;;;;;;;25.92;21.13;;;;;;;16.25;98.01;100503.16;5074593;28;20140;-51
2021/09/18 08:26:16;;;;;;;26.80;21.20;;;;;;;16.31;97.29;100495.59;5077950;28;20044;-52
2021/09/18 08:28:43;;;;;;;24.05;20.80;;;;;;;16.43;96.31;100505.41;5079637;28;20048;-51
2021/09/18 08:31:09;;;;;;;24.33;19.80;;;;;;;16.55;96.89;100513.53;5076195;28;20056;-51
2021/09/18 08:33:36;;;;;;;26.42;19.40;;;;;;;16.64;94.99;100512.94;5076346;28;20148;-52
2021/09/18 08:36:03;;;;;;;24.92;20.55;;;;;;;16.71;95.96;100511.53;5077793;28;20734;-51
2021/09/18 08:38:30;;;;;;;25.20;19.85;;;;;;;16.83;94.70;100516.03;5075438;28;20063;-54
2021/09/18 08:40:56;;;;;;;26.45;20.58;;;;;;;16.96;92.74;100513.34;5077587;28;20048;-51
2021/09/18 08:43:23;;;;;;;22.67;19.27;;;;;;;17.07;91.37;100508.06;5079989;28;20135;-52
2021/09/18 08:45:49;;;;;;;22.00;18.75;;;;;;;17.13;92.10;100515.66;5079412;28;20055;-52
2021/09/18 08:48:17;;;;;;;21.30;18.38;;;;;;;17.15;89.06;100509.22;5073645;28;20043;-52
2021/09/18 08:50:44;;;;;;;24.08;19.67;;;;;;;17.22;90.59;100511.44;5078080;28;20529;-51
2021/09/18 08:53:10;;;;;;;22.98;18.40;;;;;;;17.39;88.06;100516.44;5073480;28;20792;-50
2021/09/18 08:55:37;;;;;;;23.35;18.63;;;;;;;17.58;87.90;100516.78;5074897;28;20044;-51
2021/09/18 08:58:03;;;;;;;18.42;16.27;;;;;;;17.77;84.76;100495.75;5071916;28;20128;-52
2021/09/18 09:00:33;;;;;;;19.40;15.10;;;;;;;18.21;83.48;100516.47;5077532;28;20127;-53
2021/09/18 09:03:05;;;;;;;21.30;17.80;;;;;;;18.74;78.68;100519.50;5076190;28;20420;-52
2021/09/18 09:05:37;;;;;;;24.02;19.73;;;;;;;19.16;74.59;100520.59;5077505;28;20040;-53
2021/09/18 09:08:11;;;;;;;22.83;19.05;;;;;;;19.30;73.95;100521.31;5069811;28;20056;-51
2021/09/18 09:10:42;;;;;;;21.40;18.00;;;;;;;19.50;73.39;100517.91;5074765;28;20150;-52
2021/09/18 09:13:10;;;;;;;25.98;21.23;;;;;;;19.73;71.88;100519.53;5075055;28;21508;-52
2021/09/18 09:15:37;;;;;;;29.20;21.42;;;;;;;20.01;69.98;100514.50;5076656;28;20448;-52
2021/09/18 09:18:28;;;;;;;27.38;21.65;;;;;;;20.14;68.89;100513.38;5076113;28;20104;-51
2021/09/18 09:21:17;;;;;;;27.60;22.70;;;;;;;20.39;65.91;100514.84;5077328;28;20051;-53
2021/09/18 09:24:03;;;;;;;27.55;23.38;;;;;;;20.33;66.37;100516.19;5073588;28;20086;-51
2021/09/18 09:26:29;;;;;;;24.55;20.38;;;;;;;20.47;66.49;100509.63;5078117;28;20044;-52
2021/09/18 09:28:56;;;;;;;28.05;22.75;;;;;;;20.61;65.35;100517.41;5076175;28;20413;-52
2021/09/18 09:31:28;;;;;;;30.98;23.63;;;;;;;20.67;65.13;100514.16;5073205;28;20048;-52
2021/09/18 09:33:56;;;;;;;29.83;24.27;;;;;;;20.56;64.83;100514.25;5073891;28;20097;-51
2021/09/18 09:36:23;;;;;;;30.30;24.35;;;;;;;20.54;66.10;100500.06;5073030;28;20052;-52
2021/09/18 09:38:51;;;;;;;27.35;21.35;;;;;;;21.04;66.17;100512.75;5075170;28;20052;-51
2021/09/18 09:41:43;;;;;;;26.77;20.13;;;;;;;21.65;63.50;100494.66;5071343;28;20048;-51
2021/09/18 09:44:14;;;;;;;31.90;24.98;;;;;;;21.97;60.22;100479.03;5075986;28;20047;-52
2021/09/18 09:46:41;;;;;;;34.00;27.35;;;;;;;21.90;59.66;100502.16;5073515;28;20050;-52
2021/09/18 09:49:13;;;;;;;31.23;26.02;;;;;;;21.91;59.79;100503.88;5072135;28;20040;-51
2021/09/18 09:51:41;;;;;;;37.47;28.52;;;;;;;22.10;59.00;100500.34;5070573;28;20054;-52
2021/09/18 09:54:14;;;;;;;43.10;28.98;;;;;;;22.21;58.12;100502.88;5074708;28;20040;-51
2021/09/18 09:56:41;;;;;;;41.83;29.13;;;;;;;22.30;57.91;100503.88;5075285;28;20150;-51
2021/09/18 09:59:07;;;;;;;34.55;25.73;;;;;;;22.43;58.60;100503.56;5080749;28;20063;-51
2021/09/18 10:01:34;;;;;;;35.22;27.38;;;;;;;22.63;56.54;100503.38;5071228;28;20090;-52
2021/09/18 10:04:02;;;;;;;32.67;26.50;;;;;;;22.57;57.66;100503.09;5074627;28;20512;-52
2021/09/18 10:06:29;;;;;;;33.67;25.45;;;;;;;22.91;57.31;100498.06;5073831;28;20048;-52
2021/09/18 10:08:57;;;;;;;31.90;25.38;;;;;;;23.21;57.44;100500.47;5073451;28;20520;-52
2021/09/18 10:11:30;;;;;;;36.50;27.98;;;;;;;23.58;54.65;100494.16;5078614;28;20059;-53
2021/09/18 10:13:58;;;;;;;33.70;25.55;;;;;;;23.74;54.48;100500.59;5074099;28;20056;-51
2021/09/18 10:16:26;;;;;;;37.80;26.30;;;;;;;23.93;53.59;100496.00;5070625;28;20052;-51
2021/09/18 10:18:55;;;;;;;45.53;33.55;;;;;;;23.97;51.49;100492.84;5077997;28;20044;-51
2021/09/18 10:24:09;;;;;;;38.65;29.38;;;;;;;24.14;52.19;100475.72;5078341;28;20037;-53
2021/09/18 10:26:36;;;;;;;43.17;31.30;;;;;;;24.41;50.61;100473.91;5076287;28;20040;-54
2021/09/18 10:29:03;;;;;;;48.72;34.00;;;;;;;24.03;51.65;100477.84;5078271;28;20036;-51
2021/09/18 10:31:29;;;;;;;38.03;28.55;;;;;;;24.41;51.32;100479.31;5074048;28;20070;-51
2021/09/18 10:33:56;;;;;;;39.10;30.10;;;;;;;24.17;52.05;100479.13;5080599;28;20117;-54
2021/09/18 10:36:31;;;;;;;46.50;32.95;;;;;;;23.80;52.33;100482.88;5079516;28;20063;-51
2021/09/18 10:39:11;;;;;;;39.35;28.70;;;;;;;23.75;54.31;100463.56;5080140;28;20051;-52
2021/09/18 10:41:42;;;;;;;32.53;25.67;;;;;;;24.37;52.92;100467.16;5077146;28;20059;-53
2021/09/18 10:44:09;;;;;;;40.38;30.08;;;;;;;24.98;50.78;100475.13;5075986;28;20300;-54
2021/09/18 10:46:48;;;;;;;40.90;28.45;;;;;;;25.32;49.50;100468.81;5077471;28;20051;-52
2021/09/18 10:49:29;;;;;;;38.90;29.83;;;;;;;25.61;47.44;100463.78;5082900;28;20505;-52
2021/09/18 10:52:23;;;;;;;39.15;28.55;;;;;;;25.90;47.37;100463.34;5078729;28;20040;-53
2021/09/18 10:57:37;;;;;;;35.78;26.25;;;;;;;26.09;46.53;100468.44;5082297;28;20509;-52
2021/09/18 11:00:05;;;;;;;32.72;26.73;;;;;;;26.52;44.10;100466.38;5080036;28;20455;-54
2021/09/18 11:02:34;;;;;;;35.90;27.35;;;;;;;26.35;43.79;100468.25;5072651;28;20269;-52
2021/09/18 11:05:03;;;;;;;30.88;23.90;;;;;;;26.45;43.27;100462.63;5072017;28;20052;-51
2021/09/18 11:07:42;;;;;;;29.77;23.70;;;;;;;26.63;43.65;100465.97;5072520;28;20058;-52
2021/09/18 11:10:13;;;;;;;34.22;25.27;;;;;;;26.66;43.15;100462.06;5070906;28;20147;-53
2021/09/18 11:12:40;;;;;;;29.55;22.55;;;;;;;26.70;43.00;100468.88;5075290;28;20409;-51